createdAt,value
2022-10-30T00:00:01.686Z,17.48
2022-10-30T00:05:01.351Z,17.46
2022-10-30T00:10:01.394Z,17.46
2022-10-30T00:15:01.578Z,17.32
2022-10-30T00:20:01.611Z,17.29
2022-10-30T00:25:01.479Z,17.26
2022-10-30T00:30:01.476Z,17.3
2022-10-30T00:35:01.875Z,17.31
2022-10-30T00:40:01.874Z,17.32
2022-10-30T00:45:01.418Z,17.49
2022-10-30T00:50:01.581Z,17.62
2022-10-30T00:55:01.595Z,17.73
2022-10-30T01:00:08.481Z,17.81
2022-10-30T01:05:06.343Z,17.73
2022-10-30T01:10:04.899Z,17.65
2022-10-30T01:15:08.114Z,17.51
2022-10-30T01:20:03.985Z,17.33
2022-10-30T01:25:05.249Z,17.15
2022-10-30T01:30:02.006Z,17.22
2022-10-30T01:35:01.971Z,17.24
2022-10-30T01:40:01.809Z,17.25
2022-10-30T01:45:01.625Z,17.11
2022-10-30T01:50:01.584Z,17.04
2022-10-30T01:55:01.748Z,16.99
2022-10-30T02:00:01.765Z,16.91
2022-10-30T02:05:02.319Z,16.81
2022-10-30T02:10:01.787Z,16.78
2022-10-30T02:15:02.055Z,16.7
2022-10-30T02:20:01.899Z,16.61
2022-10-30T02:25:01.603Z,16.55
2022-10-30T02:30:01.537Z,16.47
2022-10-30T02:35:01.425Z,16.45
2022-10-30T02:40:01.578Z,16.49
2022-10-30T02:45:01.499Z,16.48
2022-10-30T02:50:01.796Z,16.43
2022-10-30T02:55:01.945Z,16.3
2022-10-30T03:00:01.863Z,16.22
2022-10-30T03:05:01.930Z,16.21
2022-10-30T03:10:02.115Z,16.15
2022-10-30T03:15:02.197Z,16.05
2022-10-30T03:20:02.185Z,16.06
2022-10-30T03:25:02.084Z,16.03
2022-10-30T03:30:01.942Z,16
2022-10-30T03:35:01.991Z,15.97
2022-10-30T03:40:01.822Z,15.83
2022-10-30T03:45:01.858Z,15.72
2022-10-30T03:50:01.589Z,15.71
2022-10-30T03:55:01.964Z,15.73
2022-10-30T04:00:01.268Z,15.67
2022-10-30T04:05:02.049Z,15.53
2022-10-30T04:10:01.294Z,15.4
2022-10-30T04:15:01.483Z,15.36
2022-10-30T04:20:01.935Z,15.43
2022-10-30T04:25:01.901Z,15.38
2022-10-30T04:30:02.019Z,15.28
2022-10-30T04:35:01.884Z,15.22
2022-10-30T04:40:02.109Z,15.23
2022-10-30T04:45:04.878Z,15.28
2022-10-30T04:50:02.051Z,15.24
2022-10-30T04:55:02.028Z,15.23
2022-10-30T05:00:01.544Z,15.21
2022-10-30T05:05:01.678Z,15.09
2022-10-30T05:10:01.716Z,14.99
2022-10-30T05:15:01.850Z,14.65
2022-10-30T05:20:02.270Z,14.06
2022-10-30T05:25:01.333Z,13.78
2022-10-30T05:30:01.374Z,13.53
2022-10-30T05:35:01.443Z,13.43
2022-10-30T05:40:01.900Z,13.16
2022-10-30T05:45:02.327Z,13.06
2022-10-30T05:50:01.802Z,13.09
2022-10-30T05:55:01.663Z,13
2022-10-30T06:00:01.757Z,12.92
2022-10-30T06:05:01.861Z,12.95
2022-10-30T06:10:01.537Z,12.93
2022-10-30T06:15:01.586Z,13.05
2022-10-30T06:20:01.910Z,13.38
2022-10-30T06:25:02.122Z,13.73
2022-10-30T06:30:01.713Z,13.86
2022-10-30T06:35:02.066Z,14
2022-10-30T06:40:01.834Z,14.08
2022-10-30T06:45:01.847Z,14.15
2022-10-30T06:50:01.660Z,14.25
2022-10-30T06:55:01.905Z,14.3
2022-10-30T07:00:02.031Z,14.27
2022-10-30T07:05:02.255Z,14.15
2022-10-30T07:10:02.184Z,14.19
2022-10-30T07:15:02.152Z,14.13
2022-10-30T07:20:01.717Z,13.83
2022-10-30T07:25:01.829Z,13.75
2022-10-30T07:30:01.831Z,13.81
2022-10-30T07:35:02.154Z,13.8
2022-10-30T07:40:02.076Z,13.88
2022-10-30T07:45:02.308Z,13.99
2022-10-30T07:50:01.258Z,14.32
2022-10-30T07:55:01.433Z,14.57
2022-10-30T08:00:04.416Z,14.91
2022-10-30T08:05:01.504Z,15.12
2022-10-30T08:10:01.705Z,15.3
2022-10-30T08:15:01.661Z,15.45
2022-10-30T08:20:01.688Z,15.53
2022-10-30T08:25:01.406Z,15.72
2022-10-30T08:30:01.771Z,15.82
2022-10-30T08:35:01.357Z,16.01
2022-10-30T08:40:01.328Z,16.1
2022-10-30T08:45:01.543Z,16.36
2022-10-30T08:50:01.573Z,16.5
2022-10-30T08:55:01.617Z,16.65
2022-10-30T09:00:01.631Z,16.75
2022-10-30T09:05:01.915Z,16.8
2022-10-30T09:10:02.017Z,16.98
2022-10-30T09:15:01.893Z,17.17
2022-10-30T09:20:01.935Z,17.34
2022-10-30T09:25:01.841Z,17.49
2022-10-30T09:30:02.045Z,17.54
2022-10-30T09:35:02.088Z,17.73
2022-10-30T09:40:01.973Z,17.84
2022-10-30T09:45:27.261Z,17.97
2022-10-30T09:50:02.043Z,18.05
2022-10-30T09:55:02.174Z,18.27
2022-10-30T10:00:01.571Z,18.22
2022-10-30T10:05:01.701Z,18.41
2022-10-30T10:10:02.217Z,18.67
2022-10-30T10:15:02.029Z,18.78
2022-10-30T10:20:01.300Z,18.95
2022-10-30T10:25:01.299Z,18.95
2022-10-30T10:30:01.463Z,19.05
2022-10-30T10:35:01.662Z,19.18
2022-10-30T10:40:01.696Z,19.3
2022-10-30T10:45:01.743Z,19.41
2022-10-30T10:50:01.731Z,19.46
2022-10-30T10:55:01.573Z,19.56
2022-10-30T11:00:01.814Z,19.6
2022-10-30T11:05:01.791Z,19.69
2022-10-30T11:10:01.860Z,19.89
2022-10-30T11:15:01.895Z,20.15
2022-10-30T11:20:01.899Z,20.33
2022-10-30T11:25:02.256Z,20.47
2022-10-30T11:30:02.056Z,20.51
2022-10-30T11:35:02.109Z,20.62
2022-10-30T11:40:02.108Z,20.72
2022-10-30T11:45:02.263Z,20.79
2022-10-30T11:50:02.147Z,20.84
2022-10-30T11:55:02.125Z,20.6
2022-10-30T12:00:04.979Z,20.47
2022-10-30T12:05:02.119Z,20.49
2022-10-30T12:10:01.544Z,20.47
2022-10-30T12:15:01.813Z,20.43
2022-10-30T12:20:01.451Z,20.42
2022-10-30T12:25:01.378Z,20.39
2022-10-30T12:30:09.746Z,20.44
2022-10-30T12:35:01.853Z,20.43
2022-10-30T12:40:02.178Z,20.44
2022-10-30T12:45:01.859Z,20.4
2022-10-30T12:50:02.425Z,20.41
2022-10-30T12:55:02.175Z,20.41
2022-10-30T13:00:02.190Z,20.31
2022-10-30T13:05:02.131Z,20.25
2022-10-30T13:10:01.961Z,20.18
2022-10-30T13:15:02.099Z,20.15
2022-10-30T13:20:01.271Z,20.07
2022-10-30T13:25:03.921Z,20
2022-10-30T13:30:01.733Z,19.95
2022-10-30T13:35:01.676Z,19.88
2022-10-30T13:40:01.615Z,19.74
2022-10-30T13:45:01.670Z,19.7
2022-10-30T13:50:01.736Z,19.65
2022-10-30T13:55:01.751Z,19.58
2022-10-30T14:00:01.683Z,19.53
2022-10-30T14:05:01.760Z,19.51
2022-10-30T14:10:01.971Z,19.47
2022-10-30T14:15:01.302Z,19.43
2022-10-30T14:20:01.414Z,19.4
2022-10-30T14:25:01.694Z,19.38
2022-10-30T14:30:01.649Z,19.4
2022-10-30T14:35:02.227Z,19.4
2022-10-30T14:40:02.221Z,19.45
2022-10-30T14:45:02.057Z,19.39
2022-10-30T14:50:01.914Z,19.25
2022-10-30T14:55:01.923Z,19.07
2022-10-30T15:00:01.842Z,18.92
2022-10-30T15:05:05.430Z,18.77
2022-10-30T15:10:01.920Z,18.69
2022-10-30T15:15:02.214Z,18.64
2022-10-30T15:20:02.161Z,18.53
2022-10-30T15:25:02.037Z,18.42
2022-10-30T15:30:02.309Z,18.32
2022-10-30T15:35:02.000Z,18.15
2022-10-30T15:40:01.878Z,18.17
2022-10-30T15:45:02.140Z,18.12
2022-10-30T15:50:01.261Z,18.12
2022-10-30T15:55:01.323Z,18.06
2022-10-30T16:00:01.509Z,17.96
2022-10-30T16:05:01.963Z,17.96
2022-10-30T16:10:01.424Z,17.95
2022-10-30T16:15:01.894Z,17.95
2022-10-30T16:20:02.021Z,17.75
2022-10-30T16:25:01.315Z,17.78
2022-10-30T16:30:01.363Z,17.88
2022-10-30T16:35:01.449Z,17.88
2022-10-30T16:40:01.629Z,17.85
2022-10-30T16:45:01.343Z,17.79
2022-10-30T16:50:01.484Z,17.62
2022-10-30T16:55:02.012Z,17.43
2022-10-30T17:00:01.705Z,17.28
2022-10-30T17:05:02.230Z,17.03
2022-10-30T17:10:02.226Z,16.84
2022-10-30T17:15:01.926Z,16.69
2022-10-30T17:20:02.038Z,16.5
2022-10-30T17:25:01.507Z,16.36
2022-10-30T17:30:02.453Z,16.33
2022-10-30T17:35:01.876Z,16.3
2022-10-30T17:40:02.015Z,16.08
2022-10-30T17:45:01.536Z,16.06
2022-10-30T17:50:01.404Z,16.01
2022-10-30T17:55:02.411Z,15.86
2022-10-30T18:00:02.200Z,15.65
2022-10-30T18:05:01.573Z,15.47
2022-10-30T18:10:02.610Z,15.34
2022-10-30T18:15:01.536Z,15.21
2022-10-30T18:20:01.764Z,15.12
2022-10-30T18:25:01.862Z,14.98
2022-10-30T18:30:02.239Z,14.87
2022-10-30T18:35:01.928Z,14.73
2022-10-30T18:40:02.275Z,14.66
2022-10-30T18:45:02.380Z,14.71
2022-10-30T18:50:02.118Z,14.69
2022-10-30T18:55:01.808Z,14.88
2022-10-30T19:00:02.327Z,15.04
2022-10-30T19:05:02.260Z,15.11
2022-10-30T19:10:01.676Z,14.98
2022-10-30T19:15:01.927Z,14.8
2022-10-30T19:20:01.721Z,14.75
2022-10-30T19:25:01.638Z,14.71
2022-10-30T19:30:02.381Z,14.71
2022-10-30T19:35:02.067Z,14.62
2022-10-30T19:40:01.877Z,14.57
2022-10-30T19:45:01.837Z,14.49
2022-10-30T19:50:01.556Z,14.49
2022-10-30T19:55:01.778Z,14.55
2022-10-30T20:00:02.218Z,14.69
2022-10-30T20:05:02.168Z,14.83
2022-10-30T20:10:01.986Z,14.91
2022-10-30T20:15:02.439Z,14.92
2022-10-30T20:20:02.028Z,14.85
2022-10-30T20:25:02.219Z,14.86
2022-10-30T20:30:02.265Z,14.97
2022-10-30T20:35:07.399Z,14.94
2022-10-30T20:40:01.922Z,14.75
2022-10-30T20:45:01.860Z,14.68
2022-10-30T20:50:01.918Z,14.56
2022-10-30T20:55:01.638Z,14.56
2022-10-30T21:00:02.376Z,14.53
2022-10-30T21:05:12.173Z,14.63
2022-10-30T21:10:02.472Z,14.78
2022-10-30T21:15:02.327Z,14.81
2022-10-30T21:20:01.764Z,14.89
2022-10-30T21:25:01.789Z,14.89
2022-10-30T21:30:02.272Z,14.68
2022-10-30T21:35:02.228Z,14.48
2022-10-30T21:40:02.167Z,14.39
2022-10-30T21:45:03.042Z,14.44
2022-10-30T21:50:05.987Z,14.42
2022-10-30T21:55:02.480Z,14.36
2022-10-30T22:00:05.928Z,14.37
2022-10-30T22:05:02.266Z,14.23
2022-10-30T22:10:02.534Z,14.06
2022-10-30T22:15:02.270Z,13.9
2022-10-30T22:20:01.756Z,13.83
2022-10-30T22:25:02.820Z,13.81
2022-10-30T22:30:11.131Z,13.86
2022-10-30T22:35:02.140Z,13.83
2022-10-30T22:40:03.776Z,13.75
2022-10-30T22:45:02.282Z,13.65
2022-10-30T22:50:01.976Z,13.52
2022-10-30T22:55:02.682Z,13.51
2022-10-30T23:00:02.650Z,13.31
2022-10-30T23:05:02.382Z,13.01
2022-10-30T23:10:02.760Z,12.99
2022-10-30T23:15:03.865Z,12.96
2022-10-30T23:20:02.982Z,12.81
2022-10-30T23:25:02.798Z,12.71
2022-10-30T23:30:02.330Z,12.62
2022-10-30T23:35:04.246Z,12.63
2022-10-30T23:40:02.812Z,12.59
2022-10-30T23:45:02.964Z,12.59
2022-10-30T23:50:01.654Z,12.53
2022-10-30T23:55:02.204Z,12.55
